Time;durP1;ratioP1;P1;durP2;ratioP2;P2;SDS_P1;SDS_P2;PMS_P1;PMS_P2;Temp;Humidity;BMP_temperature;BMP_pressure;BME280_temperature;BME280_humidity;BME280_pressure;Samples;Min_cycle;Max_cycle;Signal;HPM_P1;HPM_P2
2021/11/18 00:00:52;;;;;;;;;;;6.70;11.10;;;;;;5040601;28;19921;-78
2021/11/18 00:03:18;;;;;;;;;;;6.70;10.50;;;;;;5040230;28;20351;-78
2021/11/18 00:05:44;;;;;;;;;;;6.70;10.20;;;;;;5038071;28;19913;-78
2021/11/18 00:08:10;;;;;;;;;;;6.70;9.90;;;;;;5040275;28;19920;-77
2021/11/18 00:10:43;;;;;;;;;;;6.70;9.60;;;;;;5039646;28;19963;-78
2021/11/18 00:13:10;;;;;;;;;;;6.70;9.60;;;;;;5039710;28;19944;-76
2021/11/18 00:15:35;;;;;;;;;;;6.70;10.00;;;;;;5040797;28;19913;-77
2021/11/18 00:18:03;;;;;;;;;;;6.80;9.10;;;;;;5039359;28;19924;-79
2021/11/18 00:20:30;;;;;;;;;;;6.80;8.70;;;;;;5039188;28;19917;-77
2021/11/18 00:22:56;;;;;;;;;;;6.80;7.80;;;;;;5035869;28;19913;-79
2021/11/18 00:25:22;;;;;;;;;;;6.80;7.30;;;;;;5040306;28;19940;-77
2021/11/18 00:27:47;;;;;;;;;;;6.80;6.80;;;;;;5021137;28;19917;-78
2021/11/18 00:30:13;;;;;;;;;;;6.80;6.80;;;;;;5037151;28;20423;-79
2021/11/18 00:32:39;;;;;;;;;;;6.80;6.90;;;;;;5031484;28;19999;-77
2021/11/18 00:35:06;;;;;;;;;;;6.70;6.40;;;;;;5021825;28;20018;-78
2021/11/18 00:37:31;;;;;;;;;;;6.70;5.60;;;;;;5039652;28;19923;-78
2021/11/18 00:39:57;;;;;;;;;;;6.70;4.70;;;;;;5012896;28;19980;-78
2021/11/18 00:42:23;;;;;;;;;;;6.80;4.20;;;;;;5021190;28;19925;-77
2021/11/18 00:44:48;;;;;;;;;;;6.80;4.10;;;;;;5038235;28;20381;-79
2021/11/18 00:47:14;;;;;;;;;;;6.80;3.90;;;;;;5040251;28;19977;-79
2021/11/18 00:49:39;;;;;;;;;;;6.70;3.50;;;;;;5031485;28;19916;-77
2021/11/18 00:52:05;;;;;;;;;;;6.70;3.00;;;;;;5027902;28;19913;-78
2021/11/18 00:54:30;;;;;;;;;;;6.70;2.60;;;;;;5022235;28;19917;-78
2021/11/18 00:56:58;;;;;;;;;;;6.70;2.90;;;;;;5038249;28;19917;-79
2021/11/18 00:59:24;;;;;;;;;;;6.70;3.20;;;;;;5031194;28;19988;-78
2021/11/18 01:01:51;;;;;;;;;;;6.70;3.30;;;;;;5034352;28;19949;-77
2021/11/18 01:04:18;;;;;;;;;;;6.70;4.40;;;;;;5040231;28;19920;-77
2021/11/18 01:06:44;;;;;;;;;;;6.80;4.40;;;;;;5038517;28;20312;-77
2021/11/18 01:09:09;;;;;;;;;;;6.80;4.40;;;;;;5040177;28;19913;-79
2021/11/18 01:11:35;;;;;;;;;;;6.80;3.70;;;;;;5033744;28;20449;-80
2021/11/18 01:14:03;;;;;;;;;;;6.80;2.80;;;;;;5029356;28;19920;-78
2021/11/18 01:16:30;;;;;;;;;;;6.80;2.30;;;;;;5022654;28;20472;-78
2021/11/18 01:18:55;;;;;;;;;;;6.80;2.30;;;;;;5038662;28;19921;-78
2021/11/18 01:21:21;;;;;;;;;;;6.80;1.80;;;;;;5035961;28;19917;-78
2021/11/18 01:23:47;;;;;;;;;;;6.80;1.90;;;;;;5037563;28;19913;-78
2021/11/18 01:26:14;;;;;;;;;;;6.70;2.70;;;;;;5026469;28;19927;-77
2021/11/18 01:28:39;;;;;;;;;;;6.70;2.10;;;;;;5030848;28;19940;-77
2021/11/18 01:31:05;;;;;;;;;;;6.70;1.80;;;;;;5036540;28;19913;-77
2021/11/18 01:33:30;;;;;;;;;;;6.70;1.40;;;;;;5025343;28;19978;-78
2021/11/18 01:35:56;;;;;;;;;;;6.70;1.10;;;;;;5037372;28;19917;-77
2021/11/18 01:38:23;;;;;;;;;;;6.70;1.30;;;;;;5036929;28;19917;-79
2021/11/18 01:40:50;;;;;;;;;;;6.70;1.20;;;;;;5037557;28;19913;-77
2021/11/18 01:43:17;;;;;;;;;;;6.70;1.00;;;;;;5010698;28;19913;-77
2021/11/18 01:45:42;;;;;;;;;;;6.60;1.00;;;;;;5027211;28;19917;-79
2021/11/18 01:48:08;;;;;;;;;;;6.70;2.10;;;;;;5042391;28;20340;-78
2021/11/18 01:50:34;;;;;;;;;;;6.60;2.20;;;;;;5038688;28;19910;-78
2021/11/18 01:53:02;;;;;;;;;;;6.60;1.00;;;;;;5018203;28;19913;-78
2021/11/18 01:55:28;;;;;;;;;;;6.60;1.10;;;;;;5033268;28;19963;-77
2021/11/18 01:57:54;;;;;;;;;;;6.60;1.10;;;;;;5029145;28;19913;-78
2021/11/18 02:00:23;;;;;;;;;;;6.60;2.20;;;;;;5011270;28;20008;-78
2021/11/18 02:02:48;;;;;;;;;;;6.60;2.00;;;;;;5030292;28;20293;-77
2021/11/18 02:05:34;;;;;;;;;;;6.60;2.50;;;;;;5031317;28;19920;-78
2021/11/18 02:08:00;;;;;;;;;;;6.60;3.40;;;;;;5036520;28;19959;-77
2021/11/18 02:10:29;;;;;;;;;;;6.60;4.20;;;;;;5032986;28;20397;-78
2021/11/18 02:12:55;;;;;;;;;;;6.60;4.90;;;;;;5034239;28;19913;-78
2021/11/18 02:15:29;;;;;;;;;;;6.60;5.80;;;;;;5030078;28;20381;-79
2021/11/18 02:17:57;;;;;;;;;;;6.60;6.20;;;;;;5027260;28;19917;-79
2021/11/18 02:20:24;;;;;;;;;;;6.50;6.00;;;;;;5014238;28;19924;-77
2021/11/18 02:22:50;;;;;;;;;;;6.50;7.00;;;;;;5031530;28;20396;-78
2021/11/18 02:25:15;;;;;;;;;;;6.50;6.70;;;;;;5038755;28;19913;-77
2021/11/18 02:27:41;;;;;;;;;;;6.50;6.80;;;;;;5031657;28;19917;-78
2021/11/18 02:30:07;;;;;;;;;;;6.50;7.00;;;;;;5036588;28;20400;-77
2021/11/18 02:32:34;;;;;;;;;;;6.50;7.10;;;;;;5030233;28;19953;-78
2021/11/18 02:35:01;;;;;;;;;;;6.50;6.90;;;;;;5035209;28;19913;-77
2021/11/18 02:37:27;;;;;;;;;;;6.50;7.10;;;;;;5030048;28;19921;-78
2021/11/18 02:39:53;;;;;;;;;;;6.50;6.90;;;;;;5036402;28;19918;-77
2021/11/18 02:42:19;;;;;;;;;;;6.50;6.20;;;;;;5035897;28;20028;-78
2021/11/18 02:44:45;;;;;;;;;;;6.50;5.40;;;;;;5037832;28;19920;-78
2021/11/18 02:47:13;;;;;;;;;;;6.50;5.10;;;;;;5050139;22;19940;-85
2021/11/18 02:49:41;;;;;;;;;;;6.40;5.20;;;;;;5020853;28;19914;-85
2021/11/18 02:52:07;;;;;;;;;;;6.40;5.40;;;;;;5031275;28;19913;-86
2021/11/18 02:54:33;;;;;;;;;;;6.40;5.00;;;;;;5034493;28;19914;-85
2021/11/18 02:56:58;;;;;;;;;;;6.40;5.00;;;;;;5030724;28;19916;-85
2021/11/18 02:59:24;;;;;;;;;;;6.40;5.00;;;;;;5031572;28;19948;-85
2021/11/18 03:01:49;;;;;;;;;;;6.40;5.10;;;;;;5031968;28;19928;-86
2021/11/18 03:04:15;;;;;;;;;;;6.40;5.00;;;;;;5032317;28;19913;-86
2021/11/18 03:06:41;;;;;;;;;;;6.30;4.50;;;;;;5031687;28;19959;-85
2021/11/18 03:09:07;;;;;;;;;;;6.30;4.80;;;;;;5029694;28;19920;-85
2021/11/18 03:11:33;;;;;;;;;;;6.30;5.00;;;;;;5028400;28;20108;-85
2021/11/18 03:13:59;;;;;;;;;;;6.30;5.70;;;;;;5013324;28;19913;-85
2021/11/18 03:16:25;;;;;;;;;;;6.30;5.40;;;;;;5032420;28;19953;-86
2021/11/18 03:18:51;;;;;;;;;;;6.30;4.80;;;;;;5023357;28;19992;-86
2021/11/18 03:21:19;;;;;;;;;;;6.30;4.80;;;;;;5007048;28;19921;-85
2021/11/18 03:23:44;;;;;;;;;;;6.20;4.40;;;;;;5031091;28;20385;-85
2021/11/18 03:26:11;;;;;;;;;;;6.20;3.90;;;;;;5028371;28;20012;-85
2021/11/18 03:28:37;;;;;;;;;;;6.20;3.90;;;;;;5008947;28;19917;-85
2021/11/18 03:31:04;;;;;;;;;;;6.20;3.90;;;;;;5029924;28;20012;-85
2021/11/18 03:33:32;;;;;;;;;;;6.20;4.40;;;;;;5031362;28;20008;-85
2021/11/18 03:35:58;;;;;;;;;;;6.20;4.10;;;;;;5014721;28;19966;-85
2021/11/18 03:38:25;;;;;;;;;;;6.20;5.00;;;;;;5030535;28;20054;-85
2021/11/18 03:40:50;;;;;;;;;;;6.20;5.00;;;;;;5032500;28;19924;-86
2021/11/18 03:43:17;;;;;;;;;;;6.20;5.00;;;;;;5029509;28;20288;-86
2021/11/18 03:45:43;;;;;;;;;;;6.10;4.80;;;;;;5007904;28;19921;-85
2021/11/18 03:48:09;;;;;;;;;;;6.10;5.00;;;;;;5013555;28;19913;-85
2021/11/18 03:50:35;;;;;;;;;;;6.10;5.20;;;;;;5014408;28;19975;-85
2021/11/18 03:53:00;;;;;;;;;;;6.10;5.50;;;;;;5029043;28;20415;-85
2021/11/18 03:55:26;;;;;;;;;;;6.10;6.30;;;;;;5008002;28;19913;-85
2021/11/18 03:57:53;;;;;;;;;;;6.10;6.90;;;;;;5030329;28;19913;-85
2021/11/18 04:00:21;;;;;;;;;;;6.10;6.80;;;;;;5007122;28;19913;-85
2021/11/18 04:02:46;;;;;;;;;;;6.10;6.60;;;;;;5030733;28;19942;-86
2021/11/18 04:05:12;;;;;;;;;;;6.10;6.50;;;;;;5005554;28;20022;-85
2021/11/18 04:07:39;;;;;;;;;;;6.00;6.60;;;;;;5033660;28;19920;-86
2021/11/18 04:10:06;;;;;;;;;;;6.00;7.20;;;;;;5026219;28;19913;-85
2021/11/18 04:12:32;;;;;;;;;;;6.00;8.00;;;;;;5029234;28;19920;-85
2021/11/18 04:14:57;;;;;;;;;;;6.00;8.20;;;;;;5011852;28;19913;-86
2021/11/18 04:17:23;;;;;;;;;;;6.00;8.60;;;;;;5025030;28;20408;-86
2021/11/18 04:19:48;;;;;;;;;;;6.00;9.10;;;;;;5025418;28;20007;-85
2021/11/18 04:22:14;;;;;;;;;;;6.00;9.60;;;;;;5012965;28;19922;-85
2021/11/18 04:24:42;;;;;;;;;;;6.00;9.90;;;;;;5032650;28;20004;-85
2021/11/18 04:27:08;;;;;;;;;;;6.00;10.30;;;;;;5034615;28;20321;-85
2021/11/18 04:29:33;;;;;;;;;;;6.00;10.50;;;;;;5047905;28;19913;-86
2021/11/18 04:32:00;;;;;;;;;;;6.00;10.30;;;;;;5028090;28;19939;-85
2021/11/18 04:34:26;;;;;;;;;;;6.00;10.20;;;;;;5012821;28;20013;-85
2021/11/18 04:36:52;;;;;;;;;;;6.00;11.10;;;;;;5028138;28;19944;-85
2021/11/18 04:39:17;;;;;;;;;;;6.00;11.50;;;;;;5027592;28;21171;-84
2021/11/18 04:41:43;;;;;;;;;;;6.00;11.80;;;;;;5019375;28;19986;-85
2021/11/18 04:44:08;;;;;;;;;;;6.00;11.60;;;;;;5048756;28;20368;-85
2021/11/18 04:46:35;;;;;;;;;;;6.00;11.60;;;;;;5038014;28;20335;-85
2021/11/18 04:49:01;;;;;;;;;;;6.00;11.50;;;;;;5018363;28;19929;-85
2021/11/18 04:51:27;;;;;;;;;;;6.00;11.00;;;;;;5034905;28;19968;-85
2021/11/18 04:53:52;;;;;;;;;;;6.00;10.20;;;;;;5034620;28;20005;-85
2021/11/18 04:56:18;;;;;;;;;;;5.90;9.70;;;;;;5026808;28;19913;-85
2021/11/18 04:58:43;;;;;;;;;;;5.90;9.20;;;;;;5018175;28;19913;-85
2021/11/18 05:01:11;;;;;;;;;;;5.90;8.90;;;;;;5007240;28;20377;-85
2021/11/18 05:03:37;;;;;;;;;;;5.90;8.60;;;;;;5028819;28;19913;-85
2021/11/18 05:06:02;;;;;;;;;;;5.90;8.90;;;;;;5027626;28;20388;-85
2021/11/18 05:08:28;;;;;;;;;;;5.90;9.00;;;;;;5029793;28;19918;-85
2021/11/18 05:10:54;;;;;;;;;;;5.90;9.40;;;;;;5034378;28;20330;-85
2021/11/18 05:13:21;;;;;;;;;;;5.90;10.10;;;;;;5029901;28;19918;-85
2021/11/18 05:15:47;;;;;;;;;;;5.90;11.30;;;;;;5028386;28;19922;-85
2021/11/18 05:18:13;;;;;;;;;;;5.90;12.10;;;;;;5026300;28;19921;-84
2021/11/18 05:20:39;;;;;;;;;;;5.90;12.70;;;;;;5014897;28;20332;-85
2021/11/18 05:23:05;;;;;;;;;;;5.90;13.60;;;;;;5017064;28;19913;-85
2021/11/18 05:25:31;;;;;;;;;;;5.90;14.10;;;;;;5034691;28;19921;-85
2021/11/18 05:27:57;;;;;;;;;;;6.00;14.60;;;;;;5028528;28;19967;-85
2021/11/18 05:30:27;;;;;;;;;;;6.00;14.60;;;;;;5032418;28;19920;-85
2021/11/18 05:32:53;;;;;;;;;;;6.10;14.00;;;;;;5015069;28;19913;-85
2021/11/18 05:35:18;;;;;;;;;;;6.10;13.20;;;;;;5035267;28;19921;-85
2021/11/18 05:37:44;;;;;;;;;;;6.10;12.30;;;;;;5033017;28;19913;-85
2021/11/18 05:40:10;;;;;;;;;;;6.10;11.30;;;;;;5017422;28;19967;-86
2021/11/18 05:42:36;;;;;;;;;;;6.10;9.80;;;;;;5031223;28;19924;-86
2021/11/18 05:45:03;;;;;;;;;;;6.20;8.70;;;;;;5017308;28;20292;-85
2021/11/18 05:47:29;;;;;;;;;;;6.20;7.40;;;;;;5033050;28;19917;-85
2021/11/18 05:49:54;;;;;;;;;;;6.20;6.20;;;;;;5034635;28;19928;-85
2021/11/18 05:52:20;;;;;;;;;;;6.20;5.60;;;;;;5034986;28;20361;-85
2021/11/18 05:54:45;;;;;;;;;;;6.20;4.60;;;;;;5034640;28;19927;-85
2021/11/18 05:57:11;;;;;;;;;;;6.20;3.80;;;;;;5034692;28;19909;-85
2021/11/18 05:59:36;;;;;;;;;;;6.30;3.30;;;;;;5035741;28;19979;-86
2021/11/18 06:02:02;;;;;;;;;;;6.30;3.00;;;;;;5033704;28;19925;-84
2021/11/18 06:04:27;;;;;;;;;;;6.30;2.40;;;;;;5034164;28;19913;-84
2021/11/18 06:06:53;;;;;;;;;;;6.30;1.70;;;;;;5034177;28;19913;-84
2021/11/18 06:09:18;;;;;;;;;;;6.30;1.00;;;;;;5034780;28;19932;-85
2021/11/18 06:11:44;;;;;;;;;;;6.40;1.00;;;;;;5034095;28;19928;-85
2021/11/18 06:14:10;;;;;;;;;;;6.40;1.00;;;;;;5034539;28;19998;-84
2021/11/18 06:16:36;;;;;;;;;;;6.40;1.00;;;;;;5034119;28;19913;-85
2021/11/18 06:19:02;;;;;;;;;;;6.40;1.00;;;;;;5033334;28;20051;-85
2021/11/18 06:21:33;;;;;;;;;;;6.40;1.00;;;;;;5033062;28;19924;-84
2021/11/18 06:23:59;;;;;;;;;;;6.40;1.00;;;;;;5030072;28;19987;-84
2021/11/18 06:26:27;;;;;;;;;;;6.50;1.00;;;;;;5025954;28;20373;-84
2021/11/18 06:28:55;;;;;;;;;;;6.50;1.00;;;;;;5034615;28;19909;-84
2021/11/18 06:31:21;;;;;;;;;;;6.50;1.00;;;;;;5023614;28;19967;-84
2021/11/18 06:33:47;;;;;;;;;;;6.50;1.00;;;;;;5026183;28;19913;-84
2021/11/18 06:36:13;;;;;;;;;;;6.60;1.00;;;;;;5025043;28;19931;-84
2021/11/18 06:38:40;;;;;;;;;;;6.60;1.00;;;;;;5033607;28;20377;-83
2021/11/18 06:41:05;;;;;;;;;;;6.60;1.00;;;;;;5037550;28;19924;-84
2021/11/18 06:43:31;;;;;;;;;;;6.70;1.00;;;;;;5030993;28;19913;-84
2021/11/18 06:45:58;;;;;;;;;;;6.80;1.00;;;;;;5031781;28;19960;-84
2021/11/18 06:48:24;;;;;;;;;;;6.90;1.00;;;;;;5020195;28;19922;-85
2021/11/18 06:50:51;;;;;;;;;;;6.90;1.00;;;;;;4998933;28;19914;-84
2021/11/18 06:53:17;;;;;;;;;;;7.00;1.00;;;;;;5030130;28;19913;-84
2021/11/18 06:55:43;;;;;;;;;;;7.00;1.00;;;;;;5014484;28;20304;-84
2021/11/18 06:58:08;;;;;;;;;;;7.10;1.00;;;;;;5031266;28;19918;-85
2021/11/18 07:00:35;;;;;;;;;;;7.10;1.00;;;;;;5016493;28;19999;-85
2021/11/18 07:03:09;;;;;;;;;;;7.10;1.00;;;;;;5044542;28;20292;-85
2021/11/18 07:05:35;;;;;;;;;;;7.10;1.00;;;;;;5044026;28;19925;-85
2021/11/18 07:08:01;;;;;;;;;;;7.10;1.00;;;;;;5030995;28;19931;-85
2021/11/18 07:10:27;;;;;;;;;;;7.20;1.00;;;;;;5031904;28;19913;-85
2021/11/18 07:12:54;;;;;;;;;;;7.20;1.00;;;;;;5017289;28;20783;-85
2021/11/18 07:15:20;;;;;;;;;;;7.20;1.00;;;;;;5027097;28;19917;-85
2021/11/18 07:17:46;;;;;;;;;;;7.20;1.00;;;;;;5013769;28;20008;-85
2021/11/18 07:20:11;;;;;;;;;;;7.30;1.00;;;;;;5032208;28;20471;-85
2021/11/18 07:22:39;;;;;;;;;;;7.30;1.00;;;;;;5005301;28;19925;-85
2021/11/18 07:25:07;;;;;;;;;;;7.40;1.00;;;;;;5022438;28;19917;-85
2021/11/18 07:27:32;;;;;;;;;;;7.40;1.00;;;;;;5023373;28;19909;-85
2021/11/18 07:29:58;;;;;;;;;;;7.50;1.00;;;;;;5026285;28;19913;-84
2021/11/18 07:32:23;;;;;;;;;;;7.50;1.00;;;;;;5027696;28;20012;-84
2021/11/18 07:34:50;;;;;;;;;;;7.50;1.00;;;;;;5034882;28;19917;-84
2021/11/18 07:37:15;;;;;;;;;;;7.60;1.00;;;;;;5031587;28;19913;-84
2021/11/18 07:39:41;;;;;;;;;;;7.60;1.00;;;;;;5032273;28;20081;-83
2021/11/18 07:42:06;;;;;;;;;;;7.70;1.00;;;;;;5026603;28;19917;-84
2021/11/18 07:44:32;;;;;;;;;;;7.70;1.00;;;;;;5031195;28;19909;-84
2021/11/18 07:46:57;;;;;;;;;;;7.80;1.00;;;;;;5016121;28;20381;-84
2021/11/18 07:49:24;;;;;;;;;;;7.90;1.00;;;;;;5015109;28;19920;-82
2021/11/18 07:51:50;;;;;;;;;;;8.00;1.00;;;;;;5007423;28;20351;-82
2021/11/18 07:54:16;;;;;;;;;;;8.10;1.00;;;;;;5031870;28;19967;-83
2021/11/18 07:56:42;;;;;;;;;;;8.20;1.00;;;;;;5034345;28;19929;-82
2021/11/18 07:59:08;;;;;;;;;;;8.30;1.00;;;;;;5035710;28;19920;-82
2021/11/18 08:01:34;;;;;;;;;;;8.40;1.00;;;;;;5037358;28;19923;-82
2021/11/18 08:03:59;;;;;;;;;;;8.40;1.00;;;;;;5036501;28;20345;-81
2021/11/18 08:06:40;;;;;;;;;;;8.50;1.00;;;;;;5035255;28;19960;-82
2021/11/18 08:09:10;;;;;;;;;;;8.50;1.00;;;;;;5009565;28;19914;-83
2021/11/18 08:11:36;;;;;;;;;;;8.50;1.00;;;;;;5028338;28;19976;-83
2021/11/18 08:14:03;;;;;;;;;;;8.50;1.00;;;;;;5034412;28;19920;-82
2021/11/18 08:16:28;;;;;;;;;;;8.50;1.00;;;;;;5015417;28;19923;-83
2021/11/18 08:18:54;;;;;;;;;;;8.60;1.00;;;;;;5030304;28;19913;-84
2021/11/18 08:21:20;;;;;;;;;;;8.60;1.00;;;;;;5034639;28;19928;-83
2021/11/18 08:23:46;;;;;;;;;;;8.60;1.00;;;;;;5034905;28;20258;-83
2021/11/18 08:26:12;;;;;;;;;;;8.70;1.00;;;;;;5035301;28;19913;-81
2021/11/18 08:28:38;;;;;;;;;;;8.70;1.00;;;;;;5036822;28;19920;-81
2021/11/18 08:31:04;;;;;;;;;;;8.80;99.90;;;;;;5019014;28;19913;-81
2021/11/18 08:33:30;;;;;;;;;;;8.80;99.90;;;;;;5034441;28;20096;-83
2021/11/18 08:35:56;;;;;;;;;;;8.90;99.90;;;;;;5014735;28;19917;-81
2021/11/18 08:38:22;;;;;;;;;;;8.90;99.90;;;;;;5035361;28;19988;-82
2021/11/18 08:40:56;;;;;;;;;;;9.00;99.90;;;;;;5035520;28;20381;-83
2021/11/18 08:43:23;;;;;;;;;;;9.10;99.90;;;;;;5032474;28;20427;-83
2021/11/18 08:45:50;;;;;;;;;;;9.20;99.90;;;;;;5035257;28;19925;-83
2021/11/18 08:48:16;;;;;;;;;;;9.30;99.90;;;;;;5018553;28;20046;-81
2021/11/18 08:50:43;;;;;;;;;;;9.40;99.90;;;;;;5068371;22;19925;-78
2021/11/18 08:53:09;;;;;;;;;;;9.60;99.90;;;;;;5056106;28;19980;-79
2021/11/18 08:55:36;;;;;;;;;;;9.90;71.80;;;;;;5044184;28;19913;-78
2021/11/18 08:58:03;;;;;;;;;;;10.10;1.00;;;;;;5046923;28;19917;-78
2021/11/18 09:00:30;;;;;;;;;;;10.30;99.90;;;;;;5057508;28;19914;-78
2021/11/18 09:02:56;;;;;;;;;;;10.50;99.90;;;;;;5025392;28;20020;-79
2021/11/18 09:05:23;;;;;;;;;;;10.70;1.00;;;;;;5025497;28;19913;-79
2021/11/18 09:07:49;;;;;;;;;;;10.90;99.90;;;;;;5029440;28;20323;-79
2021/11/18 09:10:15;;;;;;;;;;;11.10;1.00;;;;;;5034606;28;19914;-80
2021/11/18 09:12:41;;;;;;;;;;;11.30;34.10;;;;;;5029895;28;19913;-81
2021/11/18 09:15:07;;;;;;;;;;;11.50;99.90;;;;;;5059056;28;20032;-80
2021/11/18 09:17:33;;;;;;;;;;;11.70;1.00;;;;;;5027303;28;19913;-80
2021/11/18 09:19:58;;;;;;;;;;;11.90;99.90;;;;;;5038924;28;20004;-78
2021/11/18 09:22:24;;;;;;;;;;;12.10;1.00;;;;;;5064128;28;19936;-78
2021/11/18 09:24:53;;;;;;;;;;;12.20;99.90;;;;;;5028775;28;19928;-79
2021/11/18 09:27:39;;;;;;;;;;;12.30;99.90;;;;;;5027248;28;19949;-79
2021/11/18 09:30:07;;;;;;;;;;;12.30;10.30;;;;;;5037449;28;19952;-79
2021/11/18 09:32:33;;;;;;;;;;;12.40;1.00;;;;;;5024745;28;19918;-78
2021/11/18 09:34:59;;;;;;;;;;;12.40;1.00;;;;;;5028983;28;20462;-78
2021/11/18 09:37:25;;;;;;;;;;;12.50;1.00;;;;;;5024516;28;19914;-79
2021/11/18 09:39:51;;;;;;;;;;;12.60;1.00;;;;;;5025799;28;19913;-79
2021/11/18 09:42:19;;;;;;;;;;;12.60;1.00;;;;;;5023043;28;20001;-79
2021/11/18 09:45:17;;;;;;;;;;;12.70;99.90;;;;;;5023800;28;20000;-77
2021/11/18 09:48:00;;;;;;;;;;;12.70;99.90;;;;;;5022428;28;19913;-78
2021/11/18 09:50:45;;;;;;;;;;;12.80;99.90;;;;;;5027001;28;19917;-78
2021/11/18 09:53:13;;;;;;;;;;;12.80;99.90;;;;;;5040703;28;19920;-78
2021/11/18 09:55:42;;;;;;;;;;;12.90;99.90;;;;;;5040859;28;19933;-79
2021/11/18 09:58:22;;;;;;;;;;;12.90;99.90;;;;;;5029875;28;19914;-78
2021/11/18 10:01:15;;;;;;;;;;;12.90;99.90;;;;;;5025314;28;19913;-79
2021/11/18 10:04:10;;;;;;;;;;;12.90;99.90;;;;;;5021973;28;19914;-78
2021/11/18 10:06:40;;;;;;;;;;;12.90;99.90;;;;;;5018441;28;20044;-79
2021/11/18 10:09:14;;;;;;;;;;;12.90;99.90;;;;;;5023116;28;19973;-78
2021/11/18 10:11:59;;;;;;;;;;;12.80;99.90;;;;;;5020273;28;19920;-78
2021/11/18 10:14:24;;;;;;;;;;;12.80;99.90;;;;;;5037860;28;19914;-78
2021/11/18 10:16:56;;;;;;;;;;;12.80;99.90;;;;;;5026181;28;19914;-78
2021/11/18 10:19:44;;;;;;;;;;;12.70;99.90;;;;;;5003618;28;19916;-78
2021/11/18 10:22:10;;;;;;;;;;;12.70;99.90;;;;;;5006712;28;20020;-78
2021/11/18 10:24:38;;;;;;;;;;;12.70;99.90;;;;;;5021037;28;19925;-79
2021/11/18 10:27:23;;;;;;;;;;;12.70;99.90;;;;;;5028561;28;19959;-78
2021/11/18 10:29:54;;;;;;;;;;;12.80;99.90;;;;;;5025714;28;20353;-79
2021/11/18 10:32:22;;;;;;;;;;;12.80;81.00;;;;;;5054860;28;19948;-78
2021/11/18 10:34:49;;;;;;;;;;;12.80;1.50;;;;;;5024286;28;19914;-79
2021/11/18 10:37:19;;;;;;;;;;;12.80;15.50;;;;;;5021951;28;20447;-79
2021/11/18 10:39:47;;;;;;;;;;;12.80;1.00;;;;;;5023808;28;19910;-79
2021/11/18 10:42:18;;;;;;;;;;;12.90;1.00;;;;;;5019536;28;19976;-78
2021/11/18 10:44:52;;;;;;;;;;;13.00;1.00;;;;;;5054876;28;19972;-79
2021/11/18 10:47:20;;;;;;;;;;;13.10;1.00;;;;;;5025357;28;20008;-79
2021/11/18 10:49:46;;;;;;;;;;;13.20;1.00;;;;;;5023615;28;19960;-78
2021/11/18 10:52:30;;;;;;;;;;;13.30;1.00;;;;;;5025398;28;20361;-78
2021/11/18 10:55:07;;;;;;;;;;;13.40;1.00;;;;;;5024704;28;19918;-79
2021/11/18 10:57:33;;;;;;;;;;;13.60;1.00;;;;;;5026791;28;19913;-79
2021/11/18 11:00:10;;;;;;;;;;;14.30;99.90;;;;;;5026099;28;19979;-80
2021/11/18 11:02:36;;;;;;;;;;;15.30;99.90;;;;;;5024899;28;19952;-79
2021/11/18 11:05:22;;;;;;;;;;;16.40;1.00;;;;;;5023240;28;20316;-79
2021/11/18 11:07:48;;;;;;;;;;;17.50;1.00;;;;;;5024409;28;19913;-80
2021/11/18 11:10:15;;;;;;;;;;;18.30;1.00;;;;;;5024950;28;19914;-80
2021/11/18 11:13:04;;;;;;;;;;;19.00;1.00;;;;;;5021867;28;19917;-79
2021/11/18 11:15:39;;;;;;;;;;;19.20;1.00;;;;;;5026595;28;19913;-80
2021/11/18 11:18:19;;;;;;;;;;;19.00;1.00;;;;;;5065187;28;19937;-79
2021/11/18 11:21:07;;;;;;;;;;;17.90;1.00;;;;;;5030633;28;19917;-78
2021/11/18 11:23:51;;;;;;;;;;;17.60;1.00;;;;;;5033218;28;20284;-79
2021/11/18 11:26:32;;;;;;;;;;;18.10;1.00;;;;;;5060955;28;19909;-79
2021/11/18 11:29:10;;;;;;;;;;;19.10;1.00;;;;;;5025472;28;19913;-79
2021/11/18 11:31:45;;;;;;;;;;;19.80;1.00;;;;;;5061202;28;19975;-79
2021/11/18 11:34:13;;;;;;;;;;;20.20;1.00;;;;;;5027366;28;19913;-80
2021/11/18 11:36:42;;;;;;;;;;;20.50;1.00;;;;;;5059582;28;19914;-79
2021/11/18 11:39:13;;;;;;;;;;;20.60;1.00;;;;;;5028859;28;20369;-79
2021/11/18 11:41:57;;;;;;;;;;;20.50;1.00;;;;;;5029170;28;19963;-79
2021/11/18 11:44:43;;;;;;;;;;;20.40;1.00;;;;;;5028111;28;19914;-79
2021/11/18 11:47:18;;;;;;;;;;;20.60;1.00;;;;;;5030127;28;19914;-78
2021/11/18 11:50:02;;;;;;;;;;;20.40;1.00;;;;;;5023879;28;19964;-79
2021/11/18 11:52:46;;;;;;;;;;;20.30;1.00;;;;;;5024333;28;19930;-78
2021/11/18 11:55:31;;;;;;;;;;;20.10;1.00;;;;;;5025579;28;19910;-78
2021/11/18 11:58:07;;;;;;;;;;;20.00;1.00;;;;;;5054713;28;19909;-78
2021/11/18 12:00:46;;;;;;;;;;;20.00;1.00;;;;;;5023285;28;20351;-78
2021/11/18 12:03:18;;;;;;;;;;;20.00;1.00;;;;;;5055023;28;19964;-78
2021/11/18 12:05:55;;;;;;;;;;;20.20;1.00;;;;;;5023786;28;19935;-78
2021/11/18 12:08:27;;;;;;;;;;;20.40;1.00;;;;;;5023434;28;19971;-78
2021/11/18 12:11:11;;;;;;;;;;;20.00;99.90;;;;;;5022158;28;19914;-78
2021/11/18 12:13:57;;;;;;;;;;;19.90;99.90;;;;;;5026839;28;19913;-78
2021/11/18 12:16:36;;;;;;;;;;;19.40;99.90;;;;;;5015620;28;19914;-78
2021/11/18 12:19:06;;;;;;;;;;;19.40;99.90;;;;;;5016441;28;20023;-78
2021/11/18 12:21:32;;;;;;;;;;;19.20;99.90;;;;;;5018801;28;19909;-77
2021/11/18 12:24:00;;;;;;;;;;;19.30;99.90;;;;;;5020010;28;20353;-78
2021/11/18 12:26:27;;;;;;;;;;;19.10;99.90;;;;;;5017154;28;19925;-77
2021/11/18 12:29:05;;;;;;;;;;;19.10;99.90;;;;;;5021414;28;19955;-77
2021/11/18 12:31:31;;;;;;;;;;;19.30;99.90;;;;;;5017562;28;19913;-77
2021/11/18 12:33:59;;;;;;;;;;;19.50;99.90;;;;;;5022156;28;19921;-78
2021/11/18 12:36:37;;;;;;;;;;;19.30;99.90;;;;;;5022779;28;19918;-79
2021/11/18 12:39:21;;;;;;;;;;;18.80;99.90;;;;;;5026028;28;19982;-78
2021/11/18 12:41:58;;;;;;;;;;;18.80;99.90;;;;;;5024370;28;19928;-78
2021/11/18 12:44:33;;;;;;;;;;;18.90;99.90;;;;;;5057973;28;20007;-78
2021/11/18 12:47:07;;;;;;;;;;;19.10;99.90;;;;;;5025552;28;19925;-78
2021/11/18 12:49:46;;;;;;;;;;;18.90;99.90;;;;;;5059939;28;19917;-78
2021/11/18 12:52:28;;;;;;;;;;;18.90;99.90;;;;;;5027386;28;20007;-78
2021/11/18 12:55:15;;;;;;;;;;;18.90;99.90;;;;;;5027791;28;19913;-78
2021/11/18 12:57:42;;;;;;;;;;;18.90;99.90;;;;;;5028040;28;19910;-78
2021/11/18 13:00:16;;;;;;;;;;;18.60;99.90;;;;;;5024740;28;19914;-78
2021/11/18 13:02:42;;;;;;;;;;;18.50;99.90;;;;;;5022245;28;19972;-78
2021/11/18 13:05:10;;;;;;;;;;;18.30;99.90;;;;;;5056341;28;20395;-78
2021/11/18 13:07:36;;;;;;;;;;;18.10;99.90;;;;;;5036004;28;19925;-78
2021/11/18 13:10:22;;;;;;;;;;;18.00;99.90;;;;;;5012754;28;19937;-78
2021/11/18 13:12:49;;;;;;;;;;;17.90;99.90;;;;;;5056195;28;19918;-78
2021/11/18 13:15:22;;;;;;;;;;;17.90;99.90;;;;;;5052282;28;19913;-77
2021/11/18 13:17:58;;;;;;;;;;;17.90;99.90;;;;;;5006102;28;20017;-78
2021/11/18 13:20:42;;;;;;;;;;;17.90;99.90;;;;;;5018792;28;20266;-78
2021/11/18 13:23:18;;;;;;;;;;;17.70;99.90;;;;;;5003485;28;20001;-78
2021/11/18 13:25:48;;;;;;;;;;;17.30;99.90;;;;;;5013139;28;19909;-79
2021/11/18 13:28:28;;;;;;;;;;;17.10;99.90;;;;;;5021731;28;19917;-78
2021/11/18 13:30:56;;;;;;;;;;;17.00;99.90;;;;;;5023481;28;19921;-78
2021/11/18 13:33:24;;;;;;;;;;;16.90;99.90;;;;;;5025158;28;19917;-77
2021/11/18 13:36:00;;;;;;;;;;;16.70;99.90;;;;;;5017446;28;19910;-78
2021/11/18 13:38:28;;;;;;;;;;;16.60;99.90;;;;;;5016787;28;19914;-78
2021/11/18 13:40:53;;;;;;;;;;;16.60;99.90;;;;;;5016993;28;20288;-77
2021/11/18 13:43:19;;;;;;;;;;;16.70;99.90;;;;;;5018545;28;20016;-78
2021/11/18 13:45:56;;;;;;;;;;;16.70;99.90;;;;;;5020823;28;19921;-78
2021/11/18 13:48:37;;;;;;;;;;;16.60;99.90;;;;;;5020673;28;19921;-79
2021/11/18 13:51:03;;;;;;;;;;;16.80;99.90;;;;;;5027967;28;19918;-78
2021/11/18 13:53:43;;;;;;;;;;;16.60;99.90;;;;;;5024314;28;22059;-78
2021/11/18 13:56:21;;;;;;;;;;;16.50;99.90;;;;;;5025938;28;19914;-78
2021/11/18 13:58:48;;;;;;;;;;;16.50;99.90;;;;;;5028412;28;19909;-78
2021/11/18 14:01:18;;;;;;;;;;;16.50;99.90;;;;;;5028024;28;19916;-78
2021/11/18 14:03:46;;;;;;;;;;;16.50;99.90;;;;;;5024437;28;19921;-78
2021/11/18 14:06:14;;;;;;;;;;;16.30;99.90;;;;;;5032116;28;19941;-78
2021/11/18 14:08:41;;;;;;;;;;;16.20;99.90;;;;;;5058044;28;19913;-79
2021/11/18 14:11:09;;;;;;;;;;;16.20;99.90;;;;;;5058273;28;19914;-78
2021/11/18 14:13:44;;;;;;;;;;;15.90;99.90;;;;;;5027599;28;20485;-78
2021/11/18 14:16:12;;;;;;;;;;;15.60;99.90;;;;;;5026569;28;20028;-79
2021/11/18 14:18:57;;;;;;;;;;;15.30;99.90;;;;;;5026840;28;19917;-78
2021/11/18 14:21:29;;;;;;;;;;;15.10;99.90;;;;;;5025270;28;20004;-78
2021/11/18 14:23:54;;;;;;;;;;;14.90;99.90;;;;;;5024597;28;19913;-78
2021/11/18 14:26:22;;;;;;;;;;;14.70;99.90;;;;;;5023172;28;20411;-77
2021/11/18 14:28:49;;;;;;;;;;;14.60;99.90;;;;;;5022449;28;19909;-77
2021/11/18 14:31:34;;;;;;;;;;;14.50;99.90;;;;;;5024119;28;20282;-78
2021/11/18 14:34:11;;;;;;;;;;;14.40;99.90;;;;;;5025490;28;19996;-78
2021/11/18 14:36:56;;;;;;;;;;;14.40;99.90;;;;;;5027601;28;19910;-79
2021/11/18 14:39:35;;;;;;;;;;;14.40;99.90;;;;;;5029268;28;20398;-79
2021/11/18 14:42:02;;;;;;;;;;;14.50;99.90;;;;;;5029191;28;19964;-78
2021/11/18 14:44:30;;;;;;;;;;;14.40;99.90;;;;;;5025317;28;19913;-79